sensor_id;sensor_type;location;lat;lon;timestamp;P1;durP1;ratioP1;P2;durP2;ratioP2
9745;SDS011;4912;50.836;12.958;2022-08-02T00:01:21;4.35;;;2.22;;
9745;SDS011;4912;50.836;12.958;2022-08-02T00:03:51;5.50;;;2.90;;
9745;SDS011;4912;50.836;12.958;2022-08-02T00:06:21;4.22;;;2.50;;
9745;SDS011;4912;50.836;12.958;2022-08-02T00:08:51;3.80;;;2.50;;
9745;SDS011;4912;50.836;12.958;2022-08-02T00:11:24;4.07;;;2.35;;
9745;SDS011;4912;50.836;12.958;2022-08-02T00:13:55;3.42;;;2.40;;
9745;SDS011;4912;50.836;12.958;2022-08-02T00:16:25;6.50;;;2.60;;
9745;SDS011;4912;50.836;12.958;2022-08-02T00:19:04;6.65;;;2.25;;
9745;SDS011;4912;50.836;12.958;2022-08-02T00:21:34;3.70;;;2.20;;
9745;SDS011;4912;50.836;12.958;2022-08-02T00:24:04;3.97;;;2.38;;
9745;SDS011;4912;50.836;12.958;2022-08-02T00:29:35;4.03;;;2.28;;
9745;SDS011;4912;50.836;12.958;2022-08-02T00:32:17;4.70;;;2.28;;
9745;SDS011;4912;50.836;12.958;2022-08-02T00:34:47;3.30;;;2.15;;
9745;SDS011;4912;50.836;12.958;2022-08-02T00:37:18;3.85;;;2.42;;
9745;SDS011;4912;50.836;12.958;2022-08-02T00:39:48;5.55;;;2.30;;
9745;SDS011;4912;50.836;12.958;2022-08-02T00:42:21;3.90;;;2.38;;
9745;SDS011;4912;50.836;12.958;2022-08-02T00:44:52;4.28;;;2.40;;
9745;SDS011;4912;50.836;12.958;2022-08-02T00:47:22;2.90;;;2.20;;
9745;SDS011;4912;50.836;12.958;2022-08-02T00:49:52;3.25;;;2.30;;
9745;SDS011;4912;50.836;12.958;2022-08-02T00:52:22;3.65;;;2.25;;
9745;SDS011;4912;50.836;12.958;2022-08-02T00:54:53;3.45;;;2.20;;
9745;SDS011;4912;50.836;12.958;2022-08-02T00:57:26;4.80;;;2.20;;
9745;SDS011;4912;50.836;12.958;2022-08-02T00:59:56;3.67;;;2.20;;
9745;SDS011;4912;50.836;12.958;2022-08-02T01:02:26;2.88;;;2.10;;
9745;SDS011;4912;50.836;12.958;2022-08-02T01:04:57;3.17;;;2.05;;
9745;SDS011;4912;50.836;12.958;2022-08-02T01:07:27;4.57;;;2.30;;
9745;SDS011;4912;50.836;12.958;2022-08-02T01:09:57;2.95;;;2.17;;
9745;SDS011;4912;50.836;12.958;2022-08-02T01:12:31;4.95;;;2.25;;
9745;SDS011;4912;50.836;12.958;2022-08-02T01:15:02;6.85;;;2.58;;
9745;SDS011;4912;50.836;12.958;2022-08-02T01:17:37;5.03;;;2.20;;
9745;SDS011;4912;50.836;12.958;2022-08-02T01:20:23;3.60;;;2.40;;
9745;SDS011;4912;50.836;12.958;2022-08-02T01:23:21;5.72;;;2.53;;
9745;SDS011;4912;50.836;12.958;2022-08-02T01:26:08;4.03;;;2.10;;
9745;SDS011;4912;50.836;12.958;2022-08-02T01:29:05;3.35;;;2.38;;
9745;SDS011;4912;50.836;12.958;2022-08-02T01:31:40;3.58;;;2.40;;
9745;SDS011;4912;50.836;12.958;2022-08-02T01:34:17;3.22;;;2.55;;
9745;SDS011;4912;50.836;12.958;2022-08-02T01:36:53;4.97;;;2.42;;
9745;SDS011;4912;50.836;12.958;2022-08-02T01:39:29;4.55;;;2.50;;
9745;SDS011;4912;50.836;12.958;2022-08-02T01:42:03;3.45;;;2.33;;
9745;SDS011;4912;50.836;12.958;2022-08-02T01:44:38;3.53;;;2.42;;
9745;SDS011;4912;50.836;12.958;2022-08-02T01:47:13;7.15;;;2.42;;
9745;SDS011;4912;50.836;12.958;2022-08-02T01:49:52;3.30;;;2.30;;
9745;SDS011;4912;50.836;12.958;2022-08-02T01:52:27;4.22;;;2.55;;
9745;SDS011;4912;50.836;12.958;2022-08-02T01:55:03;6.90;;;2.50;;
9745;SDS011;4912;50.836;12.958;2022-08-02T01:57:45;2.90;;;2.20;;
9745;SDS011;4912;50.836;12.958;2022-08-02T02:00:22;5.13;;;2.30;;
9745;SDS011;4912;50.836;12.958;2022-08-02T02:02:57;4.35;;;2.22;;
9745;SDS011;4912;50.836;12.958;2022-08-02T02:05:30;3.45;;;2.20;;
9745;SDS011;4912;50.836;12.958;2022-08-02T02:08:03;5.25;;;2.40;;
9745;SDS011;4912;50.836;12.958;2022-08-02T02:10:37;3.15;;;2.33;;
9745;SDS011;4912;50.836;12.958;2022-08-02T02:13:13;4.55;;;2.28;;
9745;SDS011;4912;50.836;12.958;2022-08-02T02:16:02;3.50;;;2.17;;
9745;SDS011;4912;50.836;12.958;2022-08-02T02:18:33;3.20;;;2.40;;
9745;SDS011;4912;50.836;12.958;2022-08-02T02:21:11;6.60;;;2.53;;
9745;SDS011;4912;50.836;12.958;2022-08-02T02:23:42;3.42;;;2.30;;
9745;SDS011;4912;50.836;12.958;2022-08-02T02:26:12;3.60;;;2.25;;
9745;SDS011;4912;50.836;12.958;2022-08-02T02:28:57;3.85;;;2.33;;
9745;SDS011;4912;50.836;12.958;2022-08-02T02:31:33;5.40;;;2.33;;
9745;SDS011;4912;50.836;12.958;2022-08-02T02:34:08;4.35;;;2.42;;
9745;SDS011;4912;50.836;12.958;2022-08-02T02:36:45;4.25;;;2.42;;
9745;SDS011;4912;50.836;12.958;2022-08-02T02:39:19;3.70;;;2.40;;
9745;SDS011;4912;50.836;12.958;2022-08-02T02:41:52;3.22;;;2.20;;
9745;SDS011;4912;50.836;12.958;2022-08-02T02:44:23;4.68;;;2.40;;
9745;SDS011;4912;50.836;12.958;2022-08-02T02:46:58;4.88;;;2.53;;
9745;SDS011;4912;50.836;12.958;2022-08-02T02:49:30;4.07;;;2.13;;
9745;SDS011;4912;50.836;12.958;2022-08-02T02:52:04;7.45;;;2.50;;
9745;SDS011;4912;50.836;12.958;2022-08-02T02:54:35;3.40;;;2.42;;
9745;SDS011;4912;50.836;12.958;2022-08-02T02:57:07;4.72;;;2.42;;
9745;SDS011;4912;50.836;12.958;2022-08-02T02:59:39;3.20;;;2.40;;
9745;SDS011;4912;50.836;12.958;2022-08-02T03:02:18;3.90;;;2.25;;
9745;SDS011;4912;50.836;12.958;2022-08-02T03:04:49;4.68;;;2.30;;
9745;SDS011;4912;50.836;12.958;2022-08-02T03:07:24;5.30;;;2.30;;
9745;SDS011;4912;50.836;12.958;2022-08-02T03:09:54;4.78;;;2.35;;
9745;SDS011;4912;50.836;12.958;2022-08-02T03:12:26;6.00;;;2.00;;
9745;SDS011;4912;50.836;12.958;2022-08-02T03:14:58;3.58;;;2.33;;
9745;SDS011;4912;50.836;12.958;2022-08-02T03:17:40;3.60;;;2.40;;
9745;SDS011;4912;50.836;12.958;2022-08-02T03:20:13;6.97;;;2.22;;
9745;SDS011;4912;50.836;12.958;2022-08-02T03:22:45;3.35;;;2.50;;
9745;SDS011;4912;50.836;12.958;2022-08-02T03:25:17;3.85;;;2.45;;
9745;SDS011;4912;50.836;12.958;2022-08-02T03:27:47;4.45;;;2.63;;
9745;SDS011;4912;50.836;12.958;2022-08-02T03:30:17;5.25;;;2.28;;
9745;SDS011;4912;50.836;12.958;2022-08-02T03:32:52;3.45;;;2.47;;
9745;SDS011;4912;50.836;12.958;2022-08-02T03:35:23;4.40;;;2.33;;
9745;SDS011;4912;50.836;12.958;2022-08-02T03:37:53;3.00;;;2.10;;
9745;SDS011;4912;50.836;12.958;2022-08-02T03:40:25;4.28;;;2.50;;
9745;SDS011;4912;50.836;12.958;2022-08-02T03:42:57;3.38;;;2.20;;
9745;SDS011;4912;50.836;12.958;2022-08-02T03:45:28;3.78;;;2.28;;
9745;SDS011;4912;50.836;12.958;2022-08-02T03:48:02;3.05;;;2.50;;
9745;SDS011;4912;50.836;12.958;2022-08-02T03:50:54;4.35;;;2.53;;
9745;SDS011;4912;50.836;12.958;2022-08-02T03:53:25;5.80;;;2.10;;
9745;SDS011;4912;50.836;12.958;2022-08-02T03:55:55;4.63;;;2.30;;
9745;SDS011;4912;50.836;12.958;2022-08-02T03:58:26;5.18;;;2.65;;
9745;SDS011;4912;50.836;12.958;2022-08-02T04:00:56;4.07;;;2.45;;
9745;SDS011;4912;50.836;12.958;2022-08-02T04:03:30;3.17;;;2.33;;
9745;SDS011;4912;50.836;12.958;2022-08-02T04:06:00;3.63;;;2.28;;
9745;SDS011;4912;50.836;12.958;2022-08-02T04:08:30;4.35;;;2.60;;
9745;SDS011;4912;50.836;12.958;2022-08-02T04:11:04;4.10;;;2.50;;
9745;SDS011;4912;50.836;12.958;2022-08-02T04:13:47;3.83;;;2.30;;
9745;SDS011;4912;50.836;12.958;2022-08-02T04:16:22;3.63;;;2.65;;
9745;SDS011;4912;50.836;12.958;2022-08-02T04:19:06;6.18;;;2.60;;
9745;SDS011;4912;50.836;12.958;2022-08-02T04:21:41;6.40;;;2.72;;
9745;SDS011;4912;50.836;12.958;2022-08-02T04:24:18;4.47;;;2.60;;
9745;SDS011;4912;50.836;12.958;2022-08-02T04:26:54;4.47;;;2.75;;
9745;SDS011;4912;50.836;12.958;2022-08-02T04:29:32;5.13;;;2.60;;
9745;SDS011;4912;50.836;12.958;2022-08-02T04:32:12;4.00;;;2.40;;
9745;SDS011;4912;50.836;12.958;2022-08-02T04:34:45;6.05;;;3.00;;
9745;SDS011;4912;50.836;12.958;2022-08-02T04:37:36;6.10;;;2.63;;
9745;SDS011;4912;50.836;12.958;2022-08-02T04:40:28;6.18;;;2.40;;
9745;SDS011;4912;50.836;12.958;2022-08-02T04:42:58;4.43;;;2.70;;
9745;SDS011;4912;50.836;12.958;2022-08-02T04:45:28;3.92;;;2.50;;
9745;SDS011;4912;50.836;12.958;2022-08-02T04:47:59;6.45;;;2.95;;
9745;SDS011;4912;50.836;12.958;2022-08-02T04:50:34;3.45;;;2.65;;
9745;SDS011;4912;50.836;12.958;2022-08-02T04:53:04;6.03;;;2.80;;
9745;SDS011;4912;50.836;12.958;2022-08-02T04:55:34;4.10;;;2.78;;
9745;SDS011;4912;50.836;12.958;2022-08-02T04:58:05;4.18;;;2.65;;
9745;SDS011;4912;50.836;12.958;2022-08-02T05:00:55;5.05;;;2.65;;
9745;SDS011;4912;50.836;12.958;2022-08-02T05:03:25;5.47;;;3.08;;
9745;SDS011;4912;50.836;12.958;2022-08-02T05:05:58;4.38;;;2.90;;
9745;SDS011;4912;50.836;12.958;2022-08-02T05:08:44;7.78;;;2.97;;
9745;SDS011;4912;50.836;12.958;2022-08-02T05:11:18;6.63;;;3.03;;
9745;SDS011;4912;50.836;12.958;2022-08-02T05:14:02;6.50;;;3.13;;
9745;SDS011;4912;50.836;12.958;2022-08-02T05:16:32;6.38;;;2.97;;
9745;SDS011;4912;50.836;12.958;2022-08-02T05:19:02;7.45;;;3.17;;
9745;SDS011;4912;50.836;12.958;2022-08-02T05:21:36;6.10;;;3.20;;
9745;SDS011;4912;50.836;12.958;2022-08-02T05:24:06;5.65;;;3.78;;
9745;SDS011;4912;50.836;12.958;2022-08-02T05:26:37;7.15;;;3.47;;
9745;SDS011;4912;50.836;12.958;2022-08-02T05:29:07;5.75;;;3.65;;
9745;SDS011;4912;50.836;12.958;2022-08-02T05:31:38;6.97;;;4.20;;
9745;SDS011;4912;50.836;12.958;2022-08-02T05:34:08;9.23;;;5.15;;
9745;SDS011;4912;50.836;12.958;2022-08-02T05:36:41;13.68;;;4.75;;
9745;SDS011;4912;50.836;12.958;2022-08-02T05:39:11;13.07;;;4.88;;
9745;SDS011;4912;50.836;12.958;2022-08-02T05:41:45;8.85;;;4.05;;
9745;SDS011;4912;50.836;12.958;2022-08-02T05:44:15;7.43;;;4.13;;
9745;SDS011;4912;50.836;12.958;2022-08-02T05:46:45;7.20;;;4.18;;
9745;SDS011;4912;50.836;12.958;2022-08-02T05:49:15;7.88;;;4.28;;
9745;SDS011;4912;50.836;12.958;2022-08-02T05:51:51;5.97;;;3.80;;
9745;SDS011;4912;50.836;12.958;2022-08-02T05:54:34;7.78;;;4.05;;
9745;SDS011;4912;50.836;12.958;2022-08-02T05:57:10;10.50;;;4.65;;
9745;SDS011;4912;50.836;12.958;2022-08-02T05:59:47;6.65;;;3.70;;
9745;SDS011;4912;50.836;12.958;2022-08-02T06:05:34;7.25;;;4.35;;
9745;SDS011;4912;50.836;12.958;2022-08-02T06:08:11;6.22;;;3.90;;
9745;SDS011;4912;50.836;12.958;2022-08-02T06:10:42;5.45;;;3.90;;
9745;SDS011;4912;50.836;12.958;2022-08-02T06:13:16;8.10;;;4.03;;
9745;SDS011;4912;50.836;12.958;2022-08-02T06:15:46;7.13;;;3.90;;
9745;SDS011;4912;50.836;12.958;2022-08-02T06:18:25;7.90;;;3.65;;
9745;SDS011;4912;50.836;12.958;2022-08-02T06:20:57;4.57;;;3.30;;
9745;SDS011;4912;50.836;12.958;2022-08-02T06:23:54;5.57;;;3.60;;
9745;SDS011;4912;50.836;12.958;2022-08-02T06:26:26;6.90;;;3.70;;
9745;SDS011;4912;50.836;12.958;2022-08-02T06:28:57;6.57;;;3.97;;
9745;SDS011;4912;50.836;12.958;2022-08-02T06:31:27;5.70;;;3.85;;
9745;SDS011;4912;50.836;12.958;2022-08-02T06:33:58;7.68;;;4.25;;
9745;SDS011;4912;50.836;12.958;2022-08-02T06:36:30;7.28;;;4.35;;
9745;SDS011;4912;50.836;12.958;2022-08-02T06:39:13;7.55;;;3.90;;
9745;SDS011;4912;50.836;12.958;2022-08-02T06:41:49;9.82;;;4.47;;
9745;SDS011;4912;50.836;12.958;2022-08-02T06:44:35;7.22;;;3.88;;
9745;SDS011;4912;50.836;12.958;2022-08-02T06:47:19;5.85;;;3.70;;
9745;SDS011;4912;50.836;12.958;2022-08-02T06:49:50;9.38;;;4.32;;
9745;SDS011;4912;50.836;12.958;2022-08-02T06:52:21;7.55;;;4.13;;
9745;SDS011;4912;50.836;12.958;2022-08-02T06:54:59;7.20;;;4.30;;
9745;SDS011;4912;50.836;12.958;2022-08-02T06:57:31;6.28;;;3.35;;
9745;SDS011;4912;50.836;12.958;2022-08-02T07:00:03;8.63;;;4.00;;
9745;SDS011;4912;50.836;12.958;2022-08-02T07:02:35;8.90;;;3.80;;
9745;SDS011;4912;50.836;12.958;2022-08-02T07:05:06;9.60;;;5.72;;
9745;SDS011;4912;50.836;12.958;2022-08-02T07:07:38;8.07;;;4.25;;
9745;SDS011;4912;50.836;12.958;2022-08-02T07:10:11;6.68;;;3.42;;
9745;SDS011;4912;50.836;12.958;2022-08-02T07:12:42;5.75;;;3.40;;
9745;SDS011;4912;50.836;12.958;2022-08-02T07:15:12;8.43;;;3.40;;
9745;SDS011;4912;50.836;12.958;2022-08-02T07:17:42;6.90;;;2.88;;
9745;SDS011;4912;50.836;12.958;2022-08-02T07:20:13;5.80;;;3.00;;
9745;SDS011;4912;50.836;12.958;2022-08-02T07:22:43;6.03;;;2.83;;
9745;SDS011;4912;50.836;12.958;2022-08-02T07:25:16;8.88;;;3.55;;
9745;SDS011;4912;50.836;12.958;2022-08-02T07:27:46;4.88;;;2.80;;
9745;SDS011;4912;50.836;12.958;2022-08-02T07:32:46;6.77;;;3.30;;
9745;SDS011;4912;50.836;12.958;2022-08-02T07:35:16;4.47;;;2.80;;
9745;SDS011;4912;50.836;12.958;2022-08-02T07:37:48;5.75;;;3.20;;
9745;SDS011;4912;50.836;12.958;2022-08-02T07:40:30;6.40;;;3.50;;
9745;SDS011;4912;50.836;12.958;2022-08-02T07:43:00;5.85;;;3.60;;
9745;SDS011;4912;50.836;12.958;2022-08-02T07:45:31;4.28;;;2.65;;
9745;SDS011;4912;50.836;12.958;2022-08-02T07:48:21;4.53;;;2.47;;
9745;SDS011;4912;50.836;12.958;2022-08-02T07:50:51;5.20;;;2.50;;
9745;SDS011;4912;50.836;12.958;2022-08-02T07:53:21;4.93;;;2.25;;
9745;SDS011;4912;50.836;12.958;2022-08-02T07:56:14;7.55;;;3.15;;
9745;SDS011;4912;50.836;12.958;2022-08-02T07:58:44;4.35;;;2.40;;
9745;SDS011;4912;50.836;12.958;2022-08-02T08:01:15;5.40;;;2.10;;
9745;SDS011;4912;50.836;12.958;2022-08-02T08:06:15;3.28;;;2.00;;
9745;SDS011;4912;50.836;12.958;2022-08-02T08:08:54;4.05;;;1.90;;
9745;SDS011;4912;50.836;12.958;2022-08-02T08:13:57;3.53;;;2.10;;
9745;SDS011;4912;50.836;12.958;2022-08-02T08:18:57;6.05;;;1.90;;
9745;SDS011;4912;50.836;12.958;2022-08-02T08:21:28;4.63;;;2.03;;
9745;SDS011;4912;50.836;12.958;2022-08-02T08:24:00;3.83;;;2.13;;
9745;SDS011;4912;50.836;12.958;2022-08-02T08:29:03;3.83;;;2.10;;
9745;SDS011;4912;50.836;12.958;2022-08-02T08:31:35;6.13;;;2.30;;
9745;SDS011;4912;50.836;12.958;2022-08-02T08:34:05;3.67;;;1.95;;
9745;SDS011;4912;50.836;12.958;2022-08-02T08:36:35;4.32;;;2.35;;
9745;SDS011;4912;50.836;12.958;2022-08-02T08:39:06;4.43;;;2.33;;
9745;SDS011;4912;50.836;12.958;2022-08-02T08:41:40;5.30;;;2.38;;
9745;SDS011;4912;50.836;12.958;2022-08-02T08:44:12;4.40;;;2.63;;
9745;SDS011;4912;50.836;12.958;2022-08-02T08:46:42;3.10;;;1.90;;
9745;SDS011;4912;50.836;12.958;2022-08-02T08:49:17;3.42;;;1.85;;
9745;SDS011;4912;50.836;12.958;2022-08-02T08:51:55;4.93;;;2.20;;
9745;SDS011;4912;50.836;12.958;2022-08-02T08:54:37;5.03;;;1.98;;
9745;SDS011;4912;50.836;12.958;2022-08-02T08:57:16;3.97;;;1.80;;
9745;SDS011;4912;50.836;12.958;2022-08-02T08:59:48;3.10;;;2.25;;
9745;SDS011;4912;50.836;12.958;2022-08-02T09:02:18;3.85;;;1.77;;
9745;SDS011;4912;50.836;12.958;2022-08-02T09:04:53;2.65;;;2.03;;
9745;SDS011;4912;50.836;12.958;2022-08-02T09:07:24;4.70;;;2.20;;
9745;SDS011;4912;50.836;12.958;2022-08-02T09:09:54;3.13;;;2.20;;
9745;SDS011;4912;50.836;12.958;2022-08-02T09:12:27;3.33;;;2.15;;
9745;SDS011;4912;50.836;12.958;2022-08-02T09:14:57;6.47;;;2.50;;
9745;SDS011;4912;50.836;12.958;2022-08-02T09:17:33;5.47;;;2.30;;
9745;SDS011;4912;50.836;12.958;2022-08-02T09:20:07;5.57;;;2.20;;
9745;SDS011;4912;50.836;12.958;2022-08-02T09:22:38;4.97;;;2.35;;
9745;SDS011;4912;50.836;12.958;2022-08-02T09:25:10;7.72;;;2.70;;
9745;SDS011;4912;50.836;12.958;2022-08-02T09:27:46;4.38;;;2.05;;
9745;SDS011;4912;50.836;12.958;2022-08-02T09:30:17;4.97;;;2.10;;
9745;SDS011;4912;50.836;12.958;2022-08-02T09:32:48;3.58;;;1.92;;
9745;SDS011;4912;50.836;12.958;2022-08-02T09:35:31;3.65;;;1.90;;
9745;SDS011;4912;50.836;12.958;2022-08-02T09:38:23;3.72;;;2.38;;
9745;SDS011;4912;50.836;12.958;2022-08-02T09:40:53;5.53;;;4.28;;
9745;SDS011;4912;50.836;12.958;2022-08-02T09:43:39;4.75;;;2.13;;
9745;SDS011;4912;50.836;12.958;2022-08-02T09:46:30;5.65;;;2.20;;
9745;SDS011;4912;50.836;12.958;2022-08-02T09:49:04;5.90;;;2.05;;
9745;SDS011;4912;50.836;12.958;2022-08-02T09:51:37;6.45;;;2.33;;
9745;SDS011;4912;50.836;12.958;2022-08-02T09:54:16;4.03;;;1.70;;
9745;SDS011;4912;50.836;12.958;2022-08-02T09:56:50;4.07;;;1.70;;
9745;SDS011;4912;50.836;12.958;2022-08-02T09:59:24;2.65;;;1.70;;
9745;SDS011;4912;50.836;12.958;2022-08-02T10:01:56;3.08;;;2.03;;
9745;SDS011;4912;50.836;12.958;2022-08-02T10:04:30;4.20;;;1.80;;
9745;SDS011;4912;50.836;12.958;2022-08-02T10:07:19;7.93;;;2.92;;
9745;SDS011;4912;50.836;12.958;2022-08-02T10:09:50;3.78;;;1.77;;
9745;SDS011;4912;50.836;12.958;2022-08-02T10:12:20;5.53;;;1.83;;
9745;SDS011;4912;50.836;12.958;2022-08-02T10:14:54;3.58;;;1.92;;
9745;SDS011;4912;50.836;12.958;2022-08-02T10:17:25;6.38;;;1.92;;
9745;SDS011;4912;50.836;12.958;2022-08-02T10:19:55;3.78;;;2.03;;
9745;SDS011;4912;50.836;12.958;2022-08-02T10:22:30;3.35;;;2.00;;
9745;SDS011;4912;50.836;12.958;2022-08-02T10:25:02;3.70;;;1.95;;
9745;SDS011;4912;50.836;12.958;2022-08-02T10:27:34;3.38;;;1.83;;
9745;SDS011;4912;50.836;12.958;2022-08-02T10:30:27;3.65;;;2.28;;
9745;SDS011;4912;50.836;12.958;2022-08-02T10:32:59;5.40;;;2.13;;
9745;SDS011;4912;50.836;12.958;2022-08-02T10:35:32;4.03;;;2.20;;
9745;SDS011;4912;50.836;12.958;2022-08-02T10:38:08;3.03;;;1.88;;
9745;SDS011;4912;50.836;12.958;2022-08-02T10:40:46;2.90;;;1.85;;
9745;SDS011;4912;50.836;12.958;2022-08-02T10:46:21;2.80;;;1.60;;
9745;SDS011;4912;50.836;12.958;2022-08-02T10:49:02;3.75;;;1.80;;
9745;SDS011;4912;50.836;12.958;2022-08-02T10:57:14;2.53;;;1.83;;
9745;SDS011;4912;50.836;12.958;2022-08-02T10:59:51;5.25;;;1.80;;
9745;SDS011;4912;50.836;12.958;2022-08-02T11:02:37;4.68;;;1.90;;
9745;SDS011;4912;50.836;12.958;2022-08-02T11:05:11;3.60;;;1.80;;
9745;SDS011;4912;50.836;12.958;2022-08-02T11:07:44;2.90;;;1.98;;
9745;SDS011;4912;50.836;12.958;2022-08-02T11:13:14;4.72;;;1.80;;
9745;SDS011;4912;50.836;12.958;2022-08-02T11:15:47;3.03;;;1.63;;
9745;SDS011;4912;50.836;12.958;2022-08-02T11:21:33;3.00;;;1.80;;
9745;SDS011;4912;50.836;12.958;2022-08-02T11:26:57;2.78;;;1.70;;
9745;SDS011;4912;50.836;12.958;2022-08-02T11:29:32;3.95;;;1.88;;
9745;SDS011;4912;50.836;12.958;2022-08-02T11:32:06;2.60;;;1.90;;
9745;SDS011;4912;50.836;12.958;2022-08-02T11:34:40;4.32;;;1.80;;
9745;SDS011;4912;50.836;12.958;2022-08-02T11:37:12;6.00;;;1.80;;
9745;SDS011;4912;50.836;12.958;2022-08-02T11:39:49;3.65;;;1.70;;
9745;SDS011;4912;50.836;12.958;2022-08-02T11:42:20;4.10;;;1.70;;
9745;SDS011;4912;50.836;12.958;2022-08-02T11:44:50;3.08;;;2.30;;
9745;SDS011;4912;50.836;12.958;2022-08-02T11:47:20;3.80;;;1.88;;
9745;SDS011;4912;50.836;12.958;2022-08-02T11:50:02;5.50;;;1.90;;
9745;SDS011;4912;50.836;12.958;2022-08-02T11:52:34;3.63;;;1.80;;
9745;SDS011;4912;50.836;12.958;2022-08-02T11:55:06;4.13;;;1.60;;
9745;SDS011;4912;50.836;12.958;2022-08-02T11:57:39;4.05;;;1.60;;
9745;SDS011;4912;50.836;12.958;2022-08-02T12:00:29;2.38;;;1.90;;
9745;SDS011;4912;50.836;12.958;2022-08-02T12:03:00;4.53;;;1.90;;
9745;SDS011;4912;50.836;12.958;2022-08-02T12:05:32;2.60;;;2.00;;
9745;SDS011;4912;50.836;12.958;2022-08-02T12:08:24;4.03;;;2.00;;
9745;SDS011;4912;50.836;12.958;2022-08-02T12:10:56;3.85;;;1.90;;
9745;SDS011;4912;50.836;12.958;2022-08-02T12:13:40;6.15;;;2.10;;
9745;SDS011;4912;50.836;12.958;2022-08-02T12:16:22;2.42;;;1.80;;
9745;SDS011;4912;50.836;12.958;2022-08-02T12:19:05;2.95;;;2.20;;
9745;SDS011;4912;50.836;12.958;2022-08-02T12:24:44;3.60;;;2.50;;
9745;SDS011;4912;50.836;12.958;2022-08-02T12:27:30;2.92;;;2.20;;
9745;SDS011;4912;50.836;12.958;2022-08-02T12:30:03;2.67;;;1.88;;
9745;SDS011;4912;50.836;12.958;2022-08-02T12:32:36;4.18;;;2.00;;
9745;SDS011;4912;50.836;12.958;2022-08-02T12:35:09;4.13;;;2.03;;
9745;SDS011;4912;50.836;12.958;2022-08-02T12:37:55;4.57;;;2.05;;
9745;SDS011;4912;50.836;12.958;2022-08-02T12:40:29;2.70;;;2.03;;
9745;SDS011;4912;50.836;12.958;2022-08-02T12:43:02;4.95;;;2.10;;
9745;SDS011;4912;50.836;12.958;2022-08-02T12:45:44;4.40;;;2.10;;
9745;SDS011;4912;50.836;12.958;2022-08-02T12:48:31;2.92;;;2.30;;
9745;SDS011;4912;50.836;12.958;2022-08-02T12:51:17;2.30;;;1.67;;
9745;SDS011;4912;50.836;12.958;2022-08-02T12:53:52;5.22;;;1.90;;
9745;SDS011;4912;50.836;12.958;2022-08-02T12:56:26;4.15;;;2.05;;
9745;SDS011;4912;50.836;12.958;2022-08-02T12:58:59;2.75;;;2.10;;
9745;SDS011;4912;50.836;12.958;2022-08-02T13:01:29;2.95;;;2.08;;
9745;SDS011;4912;50.836;12.958;2022-08-02T13:03:59;2.50;;;2.00;;
9745;SDS011;4912;50.836;12.958;2022-08-02T13:06:38;3.30;;;2.50;;
9745;SDS011;4912;50.836;12.958;2022-08-02T13:09:14;4.15;;;2.35;;
9745;SDS011;4912;50.836;12.958;2022-08-02T13:11:45;3.80;;;2.40;;
9745;SDS011;4912;50.836;12.958;2022-08-02T13:14:16;3.35;;;2.33;;
9745;SDS011;4912;50.836;12.958;2022-08-02T13:16:46;4.88;;;2.22;;
9745;SDS011;4912;50.836;12.958;2022-08-02T13:19:17;2.45;;;2.03;;
9745;SDS011;4912;50.836;12.958;2022-08-02T13:21:47;2.50;;;1.67;;
9745;SDS011;4912;50.836;12.958;2022-08-02T13:24:32;9.93;;;3.08;;
9745;SDS011;4912;50.836;12.958;2022-08-02T13:27:22;4.35;;;2.10;;
9745;SDS011;4912;50.836;12.958;2022-08-02T13:29:54;7.57;;;2.10;;
9745;SDS011;4912;50.836;12.958;2022-08-02T13:32:25;7.43;;;2.00;;
9745;SDS011;4912;50.836;12.958;2022-08-02T13:34:57;7.32;;;2.08;;
9745;SDS011;4912;50.836;12.958;2022-08-02T13:37:30;3.80;;;2.20;;
9745;SDS011;4912;50.836;12.958;2022-08-02T13:40:09;2.50;;;1.88;;
9745;SDS011;4912;50.836;12.958;2022-08-02T13:42:48;3.28;;;2.25;;
9745;SDS011;4912;50.836;12.958;2022-08-02T13:45:19;3.83;;;2.30;;
9745;SDS011;4912;50.836;12.958;2022-08-02T13:47:49;4.35;;;2.40;;
9745;SDS011;4912;50.836;12.958;2022-08-02T13:50:31;3.30;;;2.13;;
9745;SDS011;4912;50.836;12.958;2022-08-02T13:53:01;4.00;;;2.17;;
9745;SDS011;4912;50.836;12.958;2022-08-02T13:55:34;3.05;;;1.95;;
9745;SDS011;4912;50.836;12.958;2022-08-02T13:58:08;5.18;;;2.20;;
9745;SDS011;4912;50.836;12.958;2022-08-02T14:00:39;3.22;;;2.25;;
9745;SDS011;4912;50.836;12.958;2022-08-02T14:03:09;2.67;;;2.30;;
9745;SDS011;4912;50.836;12.958;2022-08-02T14:05:40;3.95;;;2.20;;
9745;SDS011;4912;50.836;12.958;2022-08-02T14:08:14;4.15;;;2.70;;
9745;SDS011;4912;50.836;12.958;2022-08-02T14:10:48;3.10;;;2.60;;
9745;SDS011;4912;50.836;12.958;2022-08-02T14:13:20;5.22;;;2.20;;
9745;SDS011;4912;50.836;12.958;2022-08-02T14:15:50;3.78;;;2.45;;
9745;SDS011;4912;50.836;12.958;2022-08-02T14:18:20;3.28;;;2.30;;
9745;SDS011;4912;50.836;12.958;2022-08-02T14:20:51;5.07;;;2.80;;
9745;SDS011;4912;50.836;12.958;2022-08-02T14:23:21;3.67;;;2.13;;
9745;SDS011;4912;50.836;12.958;2022-08-02T14:26:15;2.53;;;1.92;;
9745;SDS011;4912;50.836;12.958;2022-08-02T14:28:53;4.03;;;2.00;;
9745;SDS011;4912;50.836;12.958;2022-08-02T14:31:23;4.85;;;2.85;;
9745;SDS011;4912;50.836;12.958;2022-08-02T14:33:54;4.70;;;2.20;;
9745;SDS011;4912;50.836;12.958;2022-08-02T14:36:24;2.95;;;2.00;;
9745;SDS011;4912;50.836;12.958;2022-08-02T14:38:54;5.97;;;2.20;;
9745;SDS011;4912;50.836;12.958;2022-08-02T14:41:27;3.13;;;2.10;;
9745;SDS011;4912;50.836;12.958;2022-08-02T14:44:19;4.97;;;1.90;;
9745;SDS011;4912;50.836;12.958;2022-08-02T14:46:49;4.25;;;2.90;;
9745;SDS011;4912;50.836;12.958;2022-08-02T14:49:20;2.80;;;2.15;;
9745;SDS011;4912;50.836;12.958;2022-08-02T14:51:52;2.90;;;2.00;;
9745;SDS011;4912;50.836;12.958;2022-08-02T14:54:23;2.83;;;1.88;;
9745;SDS011;4912;50.836;12.958;2022-08-02T14:57:00;4.53;;;2.15;;
9745;SDS011;4912;50.836;12.958;2022-08-02T14:59:32;4.22;;;1.92;;
9745;SDS011;4912;50.836;12.958;2022-08-02T15:02:08;3.58;;;2.00;;
9745;SDS011;4912;50.836;12.958;2022-08-02T15:04:40;5.65;;;1.83;;
9745;SDS011;4912;50.836;12.958;2022-08-02T15:07:11;5.97;;;2.17;;
9745;SDS011;4912;50.836;12.958;2022-08-02T15:09:42;5.95;;;1.95;;
9745;SDS011;4912;50.836;12.958;2022-08-02T15:12:15;5.75;;;2.30;;
9745;SDS011;4912;50.836;12.958;2022-08-02T15:14:45;4.82;;;2.22;;
9745;SDS011;4912;50.836;12.958;2022-08-02T15:17:16;7.20;;;2.47;;
9745;SDS011;4912;50.836;12.958;2022-08-02T15:19:46;3.45;;;2.25;;
9745;SDS011;4912;50.836;12.958;2022-08-02T15:22:27;2.95;;;2.03;;
9745;SDS011;4912;50.836;12.958;2022-08-02T15:24:58;3.30;;;1.98;;
9745;SDS011;4912;50.836;12.958;2022-08-02T15:27:31;5.20;;;2.03;;
9745;SDS011;4912;50.836;12.958;2022-08-02T15:30:05;3.55;;;2.05;;
9745;SDS011;4912;50.836;12.958;2022-08-02T15:32:36;4.72;;;2.05;;
9745;SDS011;4912;50.836;12.958;2022-08-02T15:35:18;6.15;;;2.17;;
9745;SDS011;4912;50.836;12.958;2022-08-02T15:37:49;2.50;;;1.90;;
9745;SDS011;4912;50.836;12.958;2022-08-02T15:40:19;5.30;;;2.20;;
9745;SDS011;4912;50.836;12.958;2022-08-02T15:42:53;3.00;;;2.03;;
9745;SDS011;4912;50.836;12.958;2022-08-02T15:45:23;6.00;;;2.38;;
9745;SDS011;4912;50.836;12.958;2022-08-02T15:47:53;3.03;;;2.05;;
9745;SDS011;4912;50.836;12.958;2022-08-02T15:50:24;3.28;;;2.00;;
9745;SDS011;4912;50.836;12.958;2022-08-02T15:52:54;4.95;;;2.35;;
9745;SDS011;4912;50.836;12.958;2022-08-02T15:55:24;4.80;;;2.47;;
9745;SDS011;4912;50.836;12.958;2022-08-02T15:58:08;3.42;;;2.10;;
9745;SDS011;4912;50.836;12.958;2022-08-02T16:00:46;6.18;;;2.42;;
9745;SDS011;4912;50.836;12.958;2022-08-02T16:03:16;4.25;;;2.00;;
9745;SDS011;4912;50.836;12.958;2022-08-02T16:05:47;4.47;;;2.33;;
9745;SDS011;4912;50.836;12.958;2022-08-02T16:08:17;3.88;;;2.20;;
9745;SDS011;4912;50.836;12.958;2022-08-02T16:10:47;4.55;;;2.00;;
9745;SDS011;4912;50.836;12.958;2022-08-02T16:13:20;3.20;;;1.95;;
9745;SDS011;4912;50.836;12.958;2022-08-02T16:16:18;3.65;;;1.90;;
9745;SDS011;4912;50.836;12.958;2022-08-02T16:18:50;5.05;;;1.90;;
9745;SDS011;4912;50.836;12.958;2022-08-02T16:21:20;3.83;;;2.10;;
9745;SDS011;4912;50.836;12.958;2022-08-02T16:23:52;3.92;;;2.00;;